sim
Sign-in with your pilot id or email,
or register
Callsign
Passwort

Schedule Details

Flight Number: DLH1806 (2)
Departure: Munich Airport (EDDM) at 19:25
Arrival: Madrid Barajas Airport (LEMD) at 22:05
Route: Lufthansa Passenger Schedule. Enter filed route here before submitting Pirep.

Weather Information
Getting current METAR information for EDDM 190750Z 09008KT 050V110 CAVOK 12/07 Q1020 NOSIG
Getting current METAR information for LEMD 190730Z 18009KT 9999 FEW030 SCT035 BKN057 17/14 Q1016 NOSIG

Schedule Frequency

Route Map